Time;durP1;ratioP1;P1;durP2;ratioP2;P2;SDS_P1;SDS_P2;PMS_P1;PMS_P2;Temp;Humidity;BMP_temperature;BMP_pressure;BME280_temperature;BME280_humidity;BME280_pressure;Samples;Min_cycle;Max_cycle;Signal;HPM_P1;HPM_P2
2023/10/30 00:00:08;;;;;;;13.38;6.95;;;;;;;1.95;76.79;99013.78;5072072;28;20045;-60
2023/10/30 00:02:37;;;;;;;13.48;7.10;;;;;;;1.88;77.19;99017.34;5072222;28;20513;-58
2023/10/30 00:05:04;;;;;;;9.48;6.20;;;;;;;1.89;77.46;99025.00;5071142;28;20041;-58
2023/10/30 00:07:30;;;;;;;13.20;7.03;;;;;;;1.87;78.00;99024.38;5070822;28;20441;-57
2023/10/30 00:09:55;;;;;;;9.82;6.60;;;;;;;1.86;77.93;99029.81;5071736;28;20052;-58
2023/10/30 00:12:21;;;;;;;11.23;7.07;;;;;;;1.91;78.05;99030.88;5072127;28;20281;-58
2023/10/30 00:14:47;;;;;;;8.68;6.60;;;;;;;1.90;77.67;99028.44;5072003;28;20517;-59
2023/10/30 00:17:13;;;;;;;11.57;6.80;;;;;;;1.88;77.43;99020.78;5053851;28;20087;-57
2023/10/30 00:19:39;;;;;;;12.98;7.82;;;;;;;1.91;77.85;99011.75;5071854;28;20452;-57
2023/10/30 00:22:05;;;;;;;13.00;7.20;;;;;;;2.01;77.66;98999.16;5071791;28;20041;-56
2023/10/30 00:24:32;;;;;;;11.30;7.55;;;;;;;2.04;77.16;99004.00;5071447;28;20433;-60
2023/10/30 00:26:58;;;;;;;12.73;7.88;;;;;;;2.02;76.96;99008.59;5071510;28;20071;-58
2023/10/30 00:29:24;;;;;;;12.68;7.60;;;;;;;1.99;77.21;98995.91;5070033;28;20520;-60
2023/10/30 00:31:50;;;;;;;12.13;7.40;;;;;;;2.00;76.90;99006.19;5071324;28;20047;-56
2023/10/30 00:34:15;;;;;;;11.98;7.70;;;;;;;2.02;76.42;99011.22;5071704;28;20051;-59
2023/10/30 00:36:41;;;;;;;13.48;7.47;;;;;;;2.04;76.85;99027.53;5071541;28;20043;-58
2023/10/30 00:39:07;;;;;;;13.00;7.40;;;;;;;1.92;76.92;99008.94;5070524;28;20048;-58
2023/10/30 00:41:32;;;;;;;11.82;7.50;;;;;;;1.93;76.78;99009.75;5069960;28;20040;-57
2023/10/30 00:43:58;;;;;;;12.55;7.25;;;;;;;1.97;76.94;99006.59;5070109;28;20052;-58
2023/10/30 00:46:24;;;;;;;12.40;6.60;;;;;;;1.98;76.83;99007.38;5070012;28;20094;-58
2023/10/30 00:48:50;;;;;;;10.27;6.20;;;;;;;2.01;76.72;98994.72;5070049;28;20502;-56
2023/10/30 00:51:16;;;;;;;12.63;7.45;;;;;;;1.99;76.72;98995.91;5071450;28;20048;-58
2023/10/30 00:53:42;;;;;;;13.35;6.78;;;;;;;1.97;76.83;98996.13;5071593;28;20519;-58
2023/10/30 00:56:08;;;;;;;9.15;6.28;;;;;;;1.95;76.87;98987.66;5071391;28;20190;-58
2023/10/30 00:58:34;;;;;;;10.30;7.18;;;;;;;1.92;76.51;98980.19;5071168;28;20139;-59
2023/10/30 01:01:00;;;;;;;11.57;6.97;;;;;;;1.92;76.49;98984.63;5063641;28;20045;-58
2023/10/30 01:03:26;;;;;;;12.65;7.13;;;;;;;1.95;76.97;98985.03;5050086;28;20052;-56
2023/10/30 01:05:58;;;;;;;10.73;6.28;;;;;;;1.97;76.56;98983.06;5051041;28;20544;-58
2023/10/30 01:08:25;;;;;;;11.73;7.18;;;;;;;1.97;76.37;98982.22;5049802;28;20414;-59
2023/10/30 01:10:52;;;;;;;11.50;6.78;;;;;;;1.98;76.16;98983.84;5050669;28;20130;-58
2023/10/30 01:13:18;;;;;;;10.07;6.65;;;;;;;2.00;76.29;98990.50;5049770;28;20044;-57
2023/10/30 01:15:43;;;;;;;12.38;6.20;;;;;;;1.91;76.23;98983.81;5052648;28;20094;-58
2023/10/30 01:18:09;;;;;;;8.90;5.97;;;;;;;1.86;76.40;98982.78;5054044;28;20457;-58
2023/10/30 01:20:39;;;;;;;8.63;6.32;;;;;;;1.91;76.48;98964.69;5054944;28;20080;-59
2023/10/30 01:23:04;;;;;;;12.07;6.45;;;;;;;1.97;76.28;98953.47;5053867;28;20502;-59
2023/10/30 01:25:30;;;;;;;10.25;6.72;;;;;;;2.00;75.93;98940.84;5055294;28;20111;-58
2023/10/30 01:27:55;;;;;;;8.77;6.15;;;;;;;2.05;75.15;98937.63;5053889;28;20033;-58
2023/10/30 01:30:21;;;;;;;9.55;6.07;;;;;;;2.03;75.29;98942.28;5054918;28;20041;-60
2023/10/30 01:32:47;;;;;;;9.45;6.28;;;;;;;2.04;75.62;98941.25;5055163;28;20045;-58
2023/10/30 01:35:12;;;;;;;10.50;6.47;;;;;;;2.10;75.07;98942.28;5054783;28;20087;-58
2023/10/30 01:37:38;;;;;;;9.32;6.30;;;;;;;2.13;75.29;98944.53;5053619;28;20041;-57
2023/10/30 01:40:05;;;;;;;10.68;6.15;;;;;;;2.13;74.96;98968.06;5054679;28;20102;-58
2023/10/30 01:42:31;;;;;;;8.73;6.05;;;;;;;2.13;75.06;98979.31;5054796;28;20095;-59
2023/10/30 01:44:58;;;;;;;9.13;6.00;;;;;;;2.12;74.66;98993.41;5054802;28;20087;-58
2023/10/30 01:47:25;;;;;;;8.50;5.95;;;;;;;2.08;75.22;99004.41;5053388;28;20490;-58
2023/10/30 01:49:51;;;;;;;7.75;5.63;;;;;;;1.91;75.04;98993.44;5053332;28;20036;-59
2023/10/30 01:52:17;;;;;;;9.43;6.35;;;;;;;1.92;75.41;98948.84;5053231;28;20044;-58
2023/10/30 01:54:45;;;;;;;8.63;6.13;;;;;;;1.87;75.18;98948.59;5053061;28;20080;-57
2023/10/30 01:57:11;;;;;;;8.73;5.95;;;;;;;1.90;76.02;98969.13;5053149;28;20616;-58
2023/10/30 01:59:37;;;;;;;10.25;6.05;;;;;;;1.83;75.68;98965.66;5053081;28;20068;-58
2023/10/30 02:02:03;;;;;;;8.30;5.70;;;;;;;1.81;76.10;98929.25;5048949;28;20041;-58
2023/10/30 02:04:28;;;;;;;11.15;6.72;;;;;;;1.74;76.16;98917.16;5052872;28;20167;-60
2023/10/30 02:06:54;;;;;;;9.48;6.28;;;;;;;1.77;75.69;98914.16;5054355;28;20413;-59
2023/10/30 02:09:19;;;;;;;9.57;6.40;;;;;;;1.86;75.75;98931.31;5052828;28;20052;-59
2023/10/30 02:11:45;;;;;;;11.57;5.95;;;;;;;1.85;76.42;98941.94;5054138;28;20039;-59
2023/10/30 02:14:11;;;;;;;11.60;6.13;;;;;;;1.71;75.37;98914.94;5054053;28;20087;-58
2023/10/30 02:16:37;;;;;;;9.00;5.72;;;;;;;1.72;75.56;98929.59;5052629;28;20044;-58
2023/10/30 02:19:03;;;;;;;9.93;6.20;;;;;;;1.74;75.51;98949.31;5054011;28;20044;-58
2023/10/30 02:21:29;;;;;;;9.77;6.22;;;;;;;1.74;75.74;98969.44;5052629;28;20461;-58
2023/10/30 02:23:54;;;;;;;10.30;6.28;;;;;;;1.80;75.42;98979.13;5052589;28;20136;-60
2023/10/30 02:26:20;;;;;;;9.80;6.10;;;;;;;1.77;74.78;98959.41;5053678;28;20076;-58
2023/10/30 02:28:46;;;;;;;8.70;5.63;;;;;;;1.81;75.08;98965.84;5051929;28;20048;-58
2023/10/30 02:31:11;;;;;;;8.63;5.78;;;;;;;1.83;74.69;98954.41;5052521;28;20107;-58
2023/10/30 02:33:37;;;;;;;9.93;6.30;;;;;;;1.71;75.26;98926.19;5053605;28;20049;-57
2023/10/30 02:36:03;;;;;;;8.93;6.03;;;;;;;1.71;75.02;98918.34;5052477;28;20055;-58
2023/10/30 02:38:29;;;;;;;8.80;5.70;;;;;;;1.73;75.43;98915.53;5053815;28;20110;-58
2023/10/30 02:40:54;;;;;;;7.93;5.45;;;;;;;1.72;74.96;98940.06;5052535;28;20461;-59
2023/10/30 02:43:20;;;;;;;9.23;6.05;;;;;;;1.69;75.75;98963.97;5052267;28;20056;-58
2023/10/30 02:45:46;;;;;;;9.25;5.75;;;;;;;1.63;76.24;98967.34;5052533;28;20142;-60
2023/10/30 02:48:11;;;;;;;8.90;6.00;;;;;;;1.74;75.89;98965.00;5053387;28;20492;-59
2023/10/30 02:50:37;;;;;;;8.65;5.65;;;;;;;1.83;75.92;98955.22;5053585;28;20041;-59
2023/10/30 02:53:04;;;;;;;8.57;5.85;;;;;;;1.91;75.36;98975.16;5053694;28;20053;-57
2023/10/30 02:55:31;;;;;;;11.27;6.32;;;;;;;1.96;75.08;98962.31;5052017;28;20049;-59
2023/10/30 02:57:57;;;;;;;10.80;6.50;;;;;;;2.01;74.97;98967.78;5053580;28;20076;-58
2023/10/30 03:00:22;;;;;;;8.95;5.93;;;;;;;2.05;74.57;98971.63;5055243;28;20388;-61
2023/10/30 03:02:48;;;;;;;9.98;6.25;;;;;;;2.04;74.89;98957.75;5072881;28;20120;-58
2023/10/30 03:05:13;;;;;;;8.57;5.88;;;;;;;2.00;74.59;98950.47;5072982;28;20048;-60
2023/10/30 03:07:39;;;;;;;11.73;6.40;;;;;;;2.04;74.95;98956.94;5071944;28;20453;-59
2023/10/30 03:10:05;;;;;;;9.18;6.80;;;;;;;2.07;75.21;98951.34;5073028;28;20052;-58
2023/10/30 03:12:31;;;;;;;11.50;6.85;;;;;;;2.11;74.78;98965.63;5071838;28;20414;-58
2023/10/30 03:14:56;;;;;;;8.95;5.85;;;;;;;2.13;74.54;98970.66;5073178;28;20048;-60
2023/10/30 03:17:22;;;;;;;9.88;6.03;;;;;;;2.14;74.11;98974.88;5072752;28;20087;-58
2023/10/30 03:19:48;;;;;;;12.25;6.00;;;;;;;2.15;74.13;98987.78;5071563;28;20070;-59
2023/10/30 03:22:15;;;;;;;7.20;5.53;;;;;;;2.11;73.34;98993.56;5054768;28;20044;-57
2023/10/30 03:24:41;;;;;;;9.95;6.53;;;;;;;2.02;73.73;98995.53;5072661;28;20097;-60
2023/10/30 03:27:07;;;;;;;11.20;6.68;;;;;;;2.00;75.00;99014.03;5072961;28;20082;-59
2023/10/30 03:29:36;;;;;;;10.30;5.82;;;;;;;1.96;74.34;99012.78;5072864;28;20049;-59
2023/10/30 03:32:02;;;;;;;8.05;5.78;;;;;;;1.96;74.92;99010.19;5054795;28;20041;-59
2023/10/30 03:34:27;;;;;;;11.30;6.47;;;;;;;1.93;74.86;99012.38;5071265;28;20045;-59
2023/10/30 03:36:53;;;;;;;11.05;5.90;;;;;;;1.96;74.62;99025.84;5071169;28;20036;-58
2023/10/30 03:39:19;;;;;;;8.77;6.07;;;;;;;2.04;74.85;99030.94;5072635;28;20426;-61
2023/10/30 03:41:45;;;;;;;9.82;6.13;;;;;;;1.99;74.25;99024.69;5071096;28;20051;-59
2023/10/30 03:44:11;;;;;;;8.52;5.63;;;;;;;1.93;74.09;99022.81;5072142;28;20498;-59
2023/10/30 03:46:37;;;;;;;8.77;5.82;;;;;;;1.91;74.79;99019.59;5070825;28;20047;-60
2023/10/30 03:49:02;;;;;;;8.20;5.70;;;;;;;1.93;75.19;99005.34;5070996;28;20131;-59
2023/10/30 03:51:28;;;;;;;8.00;5.40;;;;;;;1.90;73.79;98999.69;5072207;28;20103;-59
2023/10/30 03:53:54;;;;;;;8.50;5.55;;;;;;;1.89;73.50;98980.59;5072058;28;20079;-59
2023/10/30 03:56:19;;;;;;;8.75;5.45;;;;;;;1.83;73.95;98963.06;5072138;28;20409;-59
2023/10/30 03:58:45;;;;;;;8.70;5.72;;;;;;;1.76;73.22;98956.97;5071955;28;20048;-59
2023/10/30 04:01:10;;;;;;;8.48;5.13;;;;;;;1.75;73.05;98947.50;5063121;28;20041;-58
2023/10/30 04:03:36;;;;;;;9.13;5.35;;;;;;;1.74;73.46;98933.66;5052103;28;20049;-59
2023/10/30 04:06:05;;;;;;;8.02;5.45;;;;;;;1.68;73.63;98915.31;5051926;28;20068;-59
2023/10/30 04:08:30;;;;;;;8.95;5.20;;;;;;;1.63;74.34;98900.22;5052056;28;20052;-59
2023/10/30 04:10:56;;;;;;;9.43;5.53;;;;;;;1.63;74.13;98889.75;5052029;28;20041;-59
2023/10/30 04:13:22;;;;;;;9.43;5.05;;;;;;;1.63;74.58;98894.97;5050220;28;20053;-58
2023/10/30 04:15:48;;;;;;;8.20;5.25;;;;;;;1.64;74.29;98880.91;5051724;28;20454;-58
2023/10/30 04:18:14;;;;;;;8.18;5.25;;;;;;;1.68;74.31;98881.34;5051844;28;20049;-60
2023/10/30 04:20:39;;;;;;;8.70;5.70;;;;;;;1.57;75.20;98875.66;5051614;28;20387;-59
2023/10/30 04:23:05;;;;;;;10.68;5.25;;;;;;;1.59;74.93;98875.47;5051984;28;20391;-57
2023/10/30 04:25:30;;;;;;;10.05;5.72;;;;;;;1.48;75.58;98863.75;5051894;28;20564;-59
2023/10/30 04:27:56;;;;;;;8.70;5.45;;;;;;;1.43;75.98;98852.25;5051997;28;20040;-59
2023/10/30 04:30:22;;;;;;;8.20;5.35;;;;;;;1.34;76.71;98855.00;5051434;28;20457;-60
2023/10/30 04:32:47;;;;;;;7.75;5.30;;;;;;;1.28;77.28;98844.53;5051799;28;20051;-59
2023/10/30 04:35:13;;;;;;;7.85;5.15;;;;;;;1.25;78.23;98831.84;5051750;28;20099;-61
2023/10/30 04:37:38;;;;;;;9.40;5.18;;;;;;;1.27;77.35;98830.66;5051650;28;20434;-58
2023/10/30 04:40:04;;;;;;;9.73;5.53;;;;;;;1.21;78.67;98851.50;5051267;28;20040;-58
2023/10/30 04:42:31;;;;;;;8.93;5.63;;;;;;;1.15;78.84;98863.53;5051374;28;20069;-58
2023/10/30 04:44:56;;;;;;;9.77;5.38;;;;;;;1.27;80.30;98862.00;5049207;28;20056;-60
2023/10/30 04:47:22;;;;;;;10.77;5.35;;;;;;;1.25;79.85;98866.59;5051613;28;20399;-59
2023/10/30 04:49:49;;;;;;;7.47;4.53;;;;;;;1.18;78.93;98859.69;5050809;28;20048;-60
2023/10/30 04:52:15;;;;;;;10.65;5.75;;;;;;;1.12;77.92;98858.69;5051049;28;20045;-58
2023/10/30 04:54:40;;;;;;;8.90;5.03;;;;;;;1.09;78.07;98864.28;5051003;28;20069;-58
2023/10/30 04:57:06;;;;;;;8.82;5.20;;;;;;;1.12;78.53;98864.69;5051340;28;20095;-60
2023/10/30 04:59:32;;;;;;;9.98;5.50;;;;;;;1.06;78.20;98865.47;5051317;28;20518;-62
2023/10/30 05:01:57;;;;;;;8.95;5.13;;;;;;;1.12;79.09;98861.28;5051179;28;20052;-59
2023/10/30 05:04:23;;;;;;;9.32;5.68;;;;;;;1.12;78.65;98843.00;5050817;28;20044;-58
2023/10/30 05:06:49;;;;;;;10.10;5.72;;;;;;;1.11;79.53;98852.63;5049867;28;20045;-59
2023/10/30 05:09:14;;;;;;;10.75;5.65;;;;;;;1.13;79.23;98847.22;5051250;28;20079;-58
2023/10/30 05:11:40;;;;;;;10.23;5.97;;;;;;;1.19;79.26;98846.47;5051059;28;20199;-59
2023/10/30 05:14:06;;;;;;;9.85;5.47;;;;;;;1.14;78.29;98849.63;5050831;28;20052;-59
2023/10/30 05:16:32;;;;;;;10.60;5.32;;;;;;;1.09;79.62;98838.16;5050938;28;20040;-59
2023/10/30 05:18:58;;;;;;;11.13;6.03;;;;;;;1.10;79.74;98840.56;5051019;28;20044;-58
2023/10/30 05:21:24;;;;;;;9.30;5.68;;;;;;;1.05;80.22;98837.72;5049562;28;20434;-59
2023/10/30 05:23:49;;;;;;;9.30;5.78;;;;;;;1.13;80.71;98821.13;5051388;28;20049;-58
2023/10/30 05:26:15;;;;;;;11.32;6.68;;;;;;;1.22;80.31;98800.91;5051251;28;20044;-60
2023/10/30 05:28:41;;;;;;;11.27;6.60;;;;;;;1.32;81.88;98811.78;5050871;28;20438;-58
2023/10/30 05:31:07;;;;;;;10.85;6.38;;;;;;;1.25;80.77;98810.97;5049511;28;20049;-60
2023/10/30 05:33:34;;;;;;;11.85;5.95;;;;;;;1.04;81.21;98804.78;5050611;28;20127;-60
2023/10/30 05:36:03;;;;;;;11.93;6.22;;;;;;;1.05;80.86;98795.97;5050827;28;20045;-58
2023/10/30 05:38:29;;;;;;;10.35;6.18;;;;;;;1.03;81.18;98789.31;5050520;28;20052;-58
2023/10/30 05:40:55;;;;;;;11.30;5.97;;;;;;;1.05;81.64;98792.53;5050707;28;20048;-59
2023/10/30 05:43:20;;;;;;;13.30;5.85;;;;;;;1.03;81.50;98778.88;5050847;28;20110;-59
2023/10/30 05:45:47;;;;;;;13.73;5.90;;;;;;;1.05;81.55;98779.50;5049406;28;20568;-59
2023/10/30 05:48:13;;;;;;;9.98;6.38;;;;;;;1.02;81.14;98769.44;5050673;28;20107;-59
2023/10/30 05:50:39;;;;;;;10.32;5.88;;;;;;;1.08;82.15;98758.22;5050732;28;20037;-62
2023/10/30 05:53:04;;;;;;;13.60;6.25;;;;;;;1.13;81.83;98756.66;5049709;28;20442;-58
2023/10/30 05:55:30;;;;;;;11.48;5.60;;;;;;;1.13;81.03;98772.31;5050640;28;20464;-60
2023/10/30 05:57:56;;;;;;;9.48;5.63;;;;;;;1.08;81.20;98751.19;5051062;28;20051;-59
2023/10/30 06:00:23;;;;;;;9.82;5.75;;;;;;;1.07;81.85;98760.03;5050484;28;20052;-59
2023/10/30 06:02:49;;;;;;;11.35;5.95;;;;;;;1.21;83.05;98752.31;5051252;28;20041;-59
2023/10/30 06:05:16;;;;;;;10.40;5.72;;;;;;;1.28;81.45;98746.09;5052612;28;20055;-58
2023/10/30 06:07:42;;;;;;;9.95;5.53;;;;;;;1.25;80.65;98736.03;5054167;28;20041;-59
2023/10/30 06:10:10;;;;;;;12.25;6.53;;;;;;;1.26;81.88;98721.97;5019673;28;20507;-62
2023/10/30 06:12:40;;;;;;;10.38;6.00;;;;;;;1.26;80.66;98727.19;5052488;28;20411;-60
2023/10/30 06:15:07;;;;;;;10.20;5.82;;;;;;;1.27;80.82;98728.03;5019928;28;20171;-60
2023/10/30 06:17:34;;;;;;;11.02;4.90;;;;;;;1.12;80.32;98718.53;5019627;28;20043;-59
2023/10/30 06:20:00;;;;;;;8.95;5.05;;;;;;;1.04;80.41;98710.84;5052799;28;20072;-60
2023/10/30 06:22:26;;;;;;;8.57;5.07;;;;;;;1.05;81.91;98707.22;5052466;28;20081;-59
2023/10/30 06:24:52;;;;;;;10.05;4.78;;;;;;;1.05;81.72;98711.63;5053727;28;20045;-58
2023/10/30 06:27:17;;;;;;;8.55;5.25;;;;;;;1.05;81.93;98688.94;5053609;28;20052;-59
2023/10/30 06:29:43;;;;;;;11.32;5.68;;;;;;;1.04;81.01;98692.56;5053652;28;20102;-59
2023/10/30 06:32:27;;;;;;;10.07;5.63;;;;;;;0.97;80.84;98685.69;5053717;28;20047;-59
2023/10/30 06:34:56;;;;;;;11.73;6.22;;;;;;;0.92;81.60;98680.25;5056247;28;20052;-60
2023/10/30 06:37:22;;;;;;;12.82;6.15;;;;;;;0.98;81.55;98677.69;5053001;28;20045;-59
2023/10/30 06:39:48;;;;;;;11.48;6.10;;;;;;;0.95;82.34;98688.50;5058229;28;20040;-58
2023/10/30 06:42:14;;;;;;;13.93;6.65;;;;;;;1.05;82.13;98683.72;5072295;28;20040;-59
2023/10/30 06:44:40;;;;;;;11.88;5.53;;;;;;;0.97;80.53;98680.47;5049512;28;20052;-59
2023/10/30 06:47:05;;;;;;;12.18;5.43;;;;;;;0.90;81.42;98670.00;5053514;28;20040;-58
2023/10/30 06:49:32;;;;;;;9.20;5.95;;;;;;;0.89;82.50;98665.78;5053255;28;20041;-56
2023/10/30 06:51:58;;;;;;;12.35;6.35;;;;;;;0.88;82.80;98656.34;5018955;28;20604;-59
2023/10/30 06:54:24;;;;;;;10.70;5.78;;;;;;;0.84;82.70;98636.84;5056099;28;20098;-60
2023/10/30 06:56:49;;;;;;;10.38;5.80;;;;;;;0.87;83.46;98636.47;5073288;28;20094;-59
2023/10/30 06:59:16;;;;;;;12.30;6.55;;;;;;;0.82;82.88;98631.81;5071986;28;20123;-60
2023/10/30 07:01:45;;;;;;;10.07;5.75;;;;;;;0.78;83.28;98620.16;5059834;28;20037;-58
2023/10/30 07:04:12;;;;;;;13.20;6.67;;;;;;;0.80;84.68;98609.56;5052778;28;20392;-56
2023/10/30 07:06:38;;;;;;;11.70;5.85;;;;;;;0.82;83.51;98587.47;5053040;28;20068;-59
2023/10/30 07:09:07;;;;;;;9.10;5.15;;;;;;;0.89;82.81;98585.69;5052620;28;20053;-60
2023/10/30 07:11:34;;;;;;;19.52;8.80;;;;;;;0.83;83.17;98578.66;5051339;28;20041;-58
2023/10/30 07:14:03;;;;;;;21.23;9.80;;;;;;;0.86;83.48;98580.06;5052369;28;20144;-60
2023/10/30 07:16:29;;;;;;;21.33;9.95;;;;;;;0.88;83.55;98570.22;5052969;28;20073;-59
2023/10/30 07:19:02;;;;;;;21.10;9.35;;;;;;;0.92;83.54;98568.84;5052585;28;20056;-58
2023/10/30 07:21:28;;;;;;;12.32;6.25;;;;;;;0.90;82.70;98563.00;5052870;28;20044;-59
2023/10/30 07:23:54;;;;;;;15.60;7.10;;;;;;;0.88;83.33;98567.63;5052365;28;20045;-58
2023/10/30 07:26:21;;;;;;;15.20;7.38;;;;;;;0.86;84.02;98553.97;5052431;28;20435;-59
2023/10/30 07:28:48;;;;;;;10.57;5.47;;;;;;;0.96;83.28;98566.66;5051206;28;20080;-57
2023/10/30 07:31:14;;;;;;;9.05;5.65;;;;;;;0.93;83.51;98580.09;5052247;28;20394;-59
2023/10/30 07:33:40;;;;;;;9.93;5.53;;;;;;;0.97;83.61;98578.69;5052376;28;20064;-59
2023/10/30 07:36:06;;;;;;;15.35;6.43;;;;;;;1.03;83.32;98580.53;5052252;28;20792;-59
2023/10/30 07:38:32;;;;;;;10.80;5.65;;;;;;;1.01;83.28;98578.13;5052401;28;20070;-58
2023/10/30 07:40:57;;;;;;;10.68;5.53;;;;;;;1.04;83.78;98590.78;5050398;28;20461;-60
2023/10/30 07:43:23;;;;;;;10.02;5.40;;;;;;;1.11;84.79;98586.38;5051804;28;20041;-61
2023/10/30 07:45:50;;;;;;;13.35;6.00;;;;;;;1.28;86.56;98594.66;5051801;28;20045;-60
2023/10/30 07:48:16;;;;;;;13.27;5.97;;;;;;;1.39;85.05;98610.78;5051904;28;20418;-58
2023/10/30 07:50:43;;;;;;;9.63;6.00;;;;;;;1.50;85.51;98616.22;5051510;28;20451;-60
2023/10/30 07:53:08;;;;;;;10.85;5.97;;;;;;;1.62;85.87;98611.22;5034261;28;20482;-60
2023/10/30 07:55:36;;;;;;;7.13;4.72;;;;;;;1.68;84.16;98600.00;5051556;28;20061;-57
2023/10/30 07:58:07;;;;;;;6.60;3.75;;;;;;;1.57;81.93;98582.28;5051842;28;20177;-60
2023/10/30 08:00:33;;;;;;;7.43;4.32;;;;;;;1.52;82.70;98575.03;5064331;28;20041;-60
2023/10/30 08:03:00;;;;;;;7.97;4.15;;;;;;;1.51;82.59;98567.41;5070392;28;20059;-58
2023/10/30 08:05:32;;;;;;;6.65;4.18;;;;;;;1.49;82.89;98575.44;5071390;28;20427;-61
2023/10/30 08:07:58;;;;;;;7.88;4.82;;;;;;;1.43;82.64;98563.16;5037615;28;20036;-59
2023/10/30 08:10:24;;;;;;;5.85;4.55;;;;;;;1.43;83.63;98562.38;5070243;28;20162;-61
2023/10/30 08:12:49;;;;;;;9.13;5.03;;;;;;;1.46;83.79;98548.91;5070335;28;20139;-60
2023/10/30 08:15:15;;;;;;;9.10;5.22;;;;;;;1.54;83.53;98535.66;5060932;28;20048;-61
2023/10/30 08:17:41;;;;;;;7.10;4.40;;;;;;;1.49;83.27;98533.63;5050241;28;20040;-60
2023/10/30 08:20:09;;;;;;;11.10;4.88;;;;;;;1.55;84.36;98532.03;5049974;28;20142;-62
2023/10/30 08:22:35;;;;;;;8.23;5.13;;;;;;;1.53;83.14;98529.63;5051779;28;20048;-58
2023/10/30 08:25:02;;;;;;;9.95;4.85;;;;;;;1.53;83.94;98516.59;5050723;28;20041;-60
2023/10/30 08:27:30;;;;;;;9.50;5.32;;;;;;;1.53;83.69;98497.47;5051580;28;20086;-61
2023/10/30 08:29:56;;;;;;;6.22;4.32;;;;;;;1.53;83.74;98511.34;5051394;28;20048;-58
2023/10/30 08:32:22;;;;;;;9.32;5.50;;;;;;;1.60;84.35;98508.75;5051673;28;20037;-60
2023/10/30 08:34:47;;;;;;;9.98;5.80;;;;;;;1.54;83.95;98526.00;5057482;28;20039;-62
2023/10/30 08:37:13;;;;;;;7.15;5.07;;;;;;;1.54;84.12;98507.72;5055673;28;20094;-60
2023/10/30 08:39:38;;;;;;;7.63;4.40;;;;;;;1.54;84.62;98510.34;5056611;28;20041;-62
2023/10/30 08:42:05;;;;;;;9.30;4.88;;;;;;;1.50;84.48;98501.31;5071384;28;20044;-58
2023/10/30 08:44:32;;;;;;;7.88;4.75;;;;;;;1.58;84.87;98505.50;5066612;28;20044;-57
2023/10/30 08:46:58;;;;;;;8.57;4.57;;;;;;;1.58;84.53;98503.69;5049748;28;20123;-57
2023/10/30 08:49:25;;;;;;;7.28;4.38;;;;;;;1.58;84.66;98484.63;5051009;28;20044;-60
2023/10/30 08:51:50;;;;;;;9.45;5.30;;;;;;;1.54;84.85;98460.72;5051096;28;20039;-56
2023/10/30 08:54:16;;;;;;;8.23;4.78;;;;;;;1.47;84.37;98453.88;5050633;28;20091;-60
2023/10/30 08:56:44;;;;;;;8.10;5.43;;;;;;;1.54;85.04;98441.63;5054270;28;20048;-60
2023/10/30 08:59:10;;;;;;;9.38;4.60;;;;;;;1.50;85.06;98428.19;5068336;28;20127;-61
2023/10/30 09:01:35;;;;;;;6.53;4.20;;;;;;;1.43;84.54;98414.31;5063158;28;20509;-60
2023/10/30 09:04:01;;;;;;;7.57;4.55;;;;;;;1.47;85.46;98406.88;5070863;28;20048;-60
2023/10/30 09:06:27;;;;;;;8.07;4.68;;;;;;;1.46;85.63;98390.41;5071372;28;20052;-61
2023/10/30 09:08:53;;;;;;;8.93;4.20;;;;;;;1.49;85.91;98394.41;5069950;28;20393;-61
2023/10/30 09:11:19;;;;;;;9.43;4.40;;;;;;;1.43;85.16;98372.53;5070694;28;20055;-62
2023/10/30 09:13:45;;;;;;;6.57;3.75;;;;;;;1.39;86.25;98381.78;5070757;28;20296;-60
2023/10/30 09:16:11;;;;;;;7.20;4.50;;;;;;;1.44;86.97;98379.38;5051244;28;20037;-59
2023/10/30 09:18:37;;;;;;;7.68;3.70;;;;;;;1.42;86.93;98367.53;5050682;28;20517;-60
2023/10/30 09:21:04;;;;;;;7.28;4.53;;;;;;;1.35;87.39;98338.78;5050591;28;20133;-60
2023/10/30 09:23:29;;;;;;;7.18;4.10;;;;;;;1.43;87.29;98324.72;5050782;28;20418;-60
2023/10/30 09:25:55;;;;;;;6.55;4.53;;;;;;;1.49;87.53;98327.31;5052046;28;20133;-59
2023/10/30 09:28:21;;;;;;;8.32;4.78;;;;;;;1.52;87.01;98313.84;5069640;28;20044;-57
2023/10/30 09:30:46;;;;;;;8.68;4.68;;;;;;;1.50;87.52;98271.47;5056167;28;20525;-60
2023/10/30 09:33:12;;;;;;;9.10;4.72;;;;;;;1.46;87.12;98233.72;5050738;28;20491;-61
2023/10/30 09:35:38;;;;;;;8.90;4.80;;;;;;;1.46;86.67;98219.84;5064240;28;20036;-60
2023/10/30 09:38:04;;;;;;;11.63;4.90;;;;;;;1.47;86.94;98221.44;5074699;28;20056;-60
2023/10/30 09:40:30;;;;;;;7.80;4.15;;;;;;;1.41;86.81;98212.63;5060764;28;20037;-62
2023/10/30 09:42:56;;;;;;;8.30;4.85;;;;;;;1.42;87.47;98198.59;5054864;28;20107;-59
2023/10/30 09:45:23;;;;;;;8.43;5.22;;;;;;;1.48;87.70;98207.41;5052878;28;20121;-63
2023/10/30 09:47:56;;;;;;;7.65;4.97;;;;;;;1.48;87.02;98187.31;5054562;28;20045;-62
2023/10/30 09:50:23;;;;;;;9.43;5.55;;;;;;;1.54;88.16;98204.75;5052879;28;20037;-61
2023/10/30 09:52:51;;;;;;;9.63;5.50;;;;;;;1.60;88.21;98218.78;5054807;28;20402;-61
2023/10/30 09:55:22;;;;;;;12.10;6.15;;;;;;;1.63;87.83;98247.13;5064627;28;20053;-61
2023/10/30 09:57:49;;;;;;;9.52;5.13;;;;;;;1.76;88.28;98202.63;5073057;28;20044;-63
2023/10/30 10:00:16;;;;;;;9.68;5.25;;;;;;;1.75;86.86;98177.50;5073953;28;20048;-61
2023/10/30 10:02:42;;;;;;;7.72;5.53;;;;;;;1.74;86.74;98167.28;5074493;28;20044;-61
2023/10/30 10:05:09;;;;;;;13.25;5.90;;;;;;;1.71;86.84;98206.91;5064579;28;20060;-61
2023/10/30 10:07:35;;;;;;;15.98;6.57;;;;;;;1.71;87.41;98217.34;5054225;28;20044;-60
2023/10/30 10:10:03;;;;;;;12.00;6.55;;;;;;;1.75;87.25;98200.22;5061836;28;20518;-61
2023/10/30 10:12:30;;;;;;;11.27;6.47;;;;;;;1.71;87.53;98196.44;5073790;28;20037;-62
2023/10/30 10:15:08;;;;;;;11.95;9.48;;;;;;;1.77;87.43;98204.25;5070323;28;20036;-58
2023/10/30 10:17:46;;;;;;;12.65;9.15;;;;;;;1.81;87.20;98207.22;5048634;28;20230;-59
2023/10/30 10:20:12;;;;;;;13.23;7.85;;;;;;;1.76;87.52;98188.75;5050438;28;20056;-61
2023/10/30 10:22:39;;;;;;;11.10;7.30;;;;;;;1.78;87.54;98197.19;5051904;28;20049;-60
2023/10/30 10:25:10;;;;;;;10.20;6.70;;;;;;;1.86;87.55;98194.34;5051774;28;20044;-62
2023/10/30 10:27:38;;;;;;;12.88;7.18;;;;;;;1.86;87.88;98188.31;5051759;28;20052;-62
2023/10/30 10:30:06;;;;;;;12.93;7.57;;;;;;;1.83;88.01;98178.28;5053176;28;20162;-60
2023/10/30 10:32:32;;;;;;;12.15;7.28;;;;;;;1.89;88.43;98187.91;5053796;28;20037;-61
2023/10/30 10:35:05;;;;;;;11.38;7.90;;;;;;;1.89;87.92;98175.63;5053852;28;20052;-61
2023/10/30 10:37:33;;;;;;;11.40;6.85;;;;;;;1.90;87.71;98186.88;5052110;28;20037;-60
2023/10/30 10:39:59;;;;;;;12.50;7.93;;;;;;;2.01;88.02;98175.75;5052344;28;20044;-61
2023/10/30 10:42:27;;;;;;;15.38;8.25;;;;;;;2.03;87.40;98165.91;5053383;28;20052;-58
2023/10/30 10:44:55;;;;;;;14.25;8.45;;;;;;;2.08;88.17;98181.72;5053224;28;20130;-60
2023/10/30 10:47:22;;;;;;;15.40;8.75;;;;;;;2.15;87.84;98185.09;5051720;28;20048;-60
2023/10/30 10:49:48;;;;;;;14.63;8.50;;;;;;;2.25;87.56;98159.28;5052344;28;20052;-60
2023/10/30 10:52:19;;;;;;;17.17;8.60;;;;;;;2.32;87.52;98122.59;5053320;28;20419;-61
2023/10/30 10:55:02;;;;;;;17.55;8.77;;;;;;;2.31;87.42;98118.41;5052765;28;20053;-60
2023/10/30 10:57:34;;;;;;;16.20;9.27;;;;;;;2.25;87.32;98114.03;5051953;28;20071;-61
2023/10/30 11:00:06;;;;;;;14.40;8.73;;;;;;;2.18;88.09;98108.88;5051666;28;20414;-62
2023/10/30 11:02:34;;;;;;;14.52;9.27;;;;;;;2.20;89.55;98090.34;5051650;28;20432;-60
2023/10/30 11:05:00;;;;;;;16.00;8.80;;;;;;;2.25;89.09;98091.28;5051764;28;20044;-61
2023/10/30 11:07:35;;;;;;;14.85;9.07;;;;;;;2.24;89.40;98091.53;5053020;28;20055;-61
2023/10/30 11:10:05;;;;;;;16.27;9.52;;;;;;;2.37;91.83;98086.16;5034752;28;20041;-61
2023/10/30 11:12:57;;;;;;;17.70;8.93;;;;;;;2.49;90.55;98078.41;5053095;28;20072;-62
2023/10/30 11:15:30;;;;;;;15.77;8.35;;;;;;;2.50;89.38;98072.97;5051889;28;20036;-61
2023/10/30 11:18:24;;;;;;;17.80;9.00;;;;;;;2.46;89.45;98066.53;5052717;28;20088;-61
2023/10/30 11:21:27;;;;;;;16.92;8.30;;;;;;;2.48;89.98;98066.34;5016089;28;20486;-60
2023/10/30 11:23:56;;;;;;;15.75;8.57;;;;;;;2.56;90.46;98052.97;5052312;28;20045;-61
2023/10/30 11:26:38;;;;;;;17.20;9.98;;;;;;;2.53;89.53;98050.81;5052331;28;20056;-64
2023/10/30 11:29:11;;;;;;;16.35;9.75;;;;;;;2.50;88.45;98080.00;5051337;28;20605;-63
2023/10/30 11:32:05;;;;;;;17.40;9.80;;;;;;;2.55;88.62;98069.66;5051224;28;20425;-63
2023/10/30 11:34:34;;;;;;;16.23;9.20;;;;;;;2.57;88.95;98054.56;5052110;28;20066;-64